createdAt,value
2022-09-28T00:00:19.056Z,9.14
2022-09-28T00:01:21.812Z,9.14
2022-09-28T00:02:23.328Z,9.15
2022-09-28T00:03:24.764Z,9.13
2022-09-28T00:04:26.096Z,9.13
2022-09-28T00:05:27.398Z,9.18
2022-09-28T00:06:29.797Z,9.18
2022-09-28T00:07:31.166Z,9.18
2022-09-28T00:08:32.988Z,9.29
2022-09-28T00:09:34.271Z,9.26
2022-09-28T00:10:35.596Z,9.25
2022-09-28T00:11:36.905Z,9.25
2022-09-28T00:12:38.266Z,9.23
2022-09-28T00:13:39.979Z,9.25
2022-09-28T00:14:41.273Z,9.21
2022-09-28T00:15:42.600Z,9.23
2022-09-28T00:16:44.194Z,9.22
2022-09-28T00:17:45.547Z,9.27
2022-09-28T00:18:46.997Z,9.31
2022-09-28T00:19:48.300Z,9.26
2022-09-28T00:20:59.126Z,9.28
2022-09-28T00:22:00.453Z,9.27
2022-09-28T00:23:01.777Z,9.30
2022-09-28T00:24:04.792Z,9.29
2022-09-28T00:25:06.669Z,9.28
2022-09-28T00:26:07.978Z,9.31
2022-09-28T00:27:09.277Z,9.26
2022-09-28T00:28:10.606Z,9.26
2022-09-28T00:29:16.728Z,9.24
2022-09-28T00:30:18.142Z,9.24
2022-09-28T00:31:19.599Z,9.27
2022-09-28T00:32:20.940Z,9.28
2022-09-28T00:33:22.345Z,9.27
2022-09-28T00:34:23.695Z,9.26
2022-09-28T00:35:25.046Z,9.25
2022-09-28T00:36:30.250Z,9.29
2022-09-28T00:37:31.600Z,9.31
2022-09-28T00:38:32.918Z,9.28
2022-09-28T00:39:34.655Z,9.30
2022-09-28T00:40:36.026Z,9.28
2022-09-28T00:41:37.366Z,9.32
2022-09-28T00:42:38.689Z,9.35
2022-09-28T00:43:40.230Z,9.32
2022-09-28T00:44:42.697Z,9.30
2022-09-28T00:45:44.568Z,9.34
2022-09-28T00:46:45.969Z,9.30
2022-09-28T00:47:49.495Z,9.33
2022-09-28T00:48:54.857Z,9.31
2022-09-28T00:50:05.332Z,9.33
2022-09-28T00:51:08.957Z,9.34
2022-09-28T00:52:14.278Z,9.41
2022-09-28T00:53:24.045Z,9.41
2022-09-28T00:54:25.424Z,9.46
2022-09-28T00:55:31.549Z,9.44
2022-09-28T00:56:35.946Z,9.42
2022-09-28T00:57:39.906Z,9.40
2022-09-28T00:58:46.769Z,9.41
2022-09-28T00:59:48.350Z,9.39
2022-09-28T01:00:49.724Z,9.44
2022-09-28T01:01:51.129Z,9.44
2022-09-28T01:02:52.645Z,9.47
2022-09-28T01:03:53.978Z,9.46
2022-09-28T01:04:56.281Z,9.45
2022-09-28T01:05:59.011Z,9.41
2022-09-28T01:07:00.650Z,9.43
2022-09-28T01:08:03.290Z,9.44
2022-09-28T01:09:07.258Z,9.46
2022-09-28T01:10:08.797Z,9.44
2022-09-28T01:11:10.218Z,9.47
2022-09-28T01:12:11.666Z,9.44
2022-09-28T01:13:13.998Z,9.43
2022-09-28T01:14:16.319Z,9.43
2022-09-28T01:15:18.541Z,9.44
2022-09-28T01:16:19.938Z,9.47
2022-09-28T01:17:30.662Z,9.45
2022-09-28T01:18:40.518Z,9.43
2022-09-28T01:19:44.450Z,9.41
2022-09-28T01:20:51.753Z,9.43
2022-09-28T01:22:07.656Z,9.42
2022-09-28T01:23:14.903Z,9.45
2022-09-28T01:24:16.395Z,9.43
2022-09-28T01:25:20.335Z,9.47
2022-09-28T01:26:33.922Z,9.46
2022-09-28T01:27:38.252Z,9.46
2022-09-28T01:28:43.154Z,9.48
2022-09-28T01:30:07.667Z,9.47
2022-09-28T01:31:13.189Z,9.47
2022-09-28T01:32:29.212Z,9.46
2022-09-28T01:33:34.423Z,9.45
2022-09-28T01:34:39.917Z,9.45
2022-09-28T01:35:48.926Z,9.49
2022-09-28T01:36:53.504Z,9.50
2022-09-28T01:38:03.143Z,9.50
2022-09-28T01:39:09.169Z,9.47
2022-09-28T01:40:12.013Z,9.50
2022-09-28T01:41:13.621Z,9.48
2022-09-28T01:42:19.823Z,9.46
2022-09-28T01:43:23.442Z,9.47
2022-09-28T01:44:25.297Z,9.44
2022-09-28T01:45:33.859Z,9.41
2022-09-28T01:46:40.502Z,9.43
2022-09-28T01:47:43.130Z,9.48
2022-09-28T01:48:54.773Z,9.45
2022-09-28T01:50:00.433Z,9.49
2022-09-28T01:51:04.326Z,9.52
2022-09-28T01:52:19.766Z,9.49
2022-09-28T01:53:26.818Z,9.50
2022-09-28T01:54:34.538Z,9.51
2022-09-28T01:55:57.474Z,9.52
2022-09-28T01:57:09.020Z,9.52
2022-09-28T01:58:24.632Z,9.53
2022-09-28T01:59:28.928Z,9.51
2022-09-28T02:00:32.416Z,9.53
2022-09-28T02:01:38.738Z,9.53
2022-09-28T02:03:07.175Z,9.53
2022-09-28T02:04:21.253Z,9.53
2022-09-28T02:05:33.699Z,9.55
2022-09-28T02:06:37.054Z,9.57
2022-09-28T02:07:40.606Z,9.60
2022-09-28T02:09:03.478Z,9.61
2022-09-28T02:10:16.520Z,9.69
2022-09-28T02:11:19.143Z,9.67
2022-09-28T02:12:24.573Z,9.67
2022-09-28T02:13:34.495Z,9.67
2022-09-28T02:14:38.480Z,9.76
2022-09-28T02:15:46.510Z,9.76
2022-09-28T02:16:49.296Z,9.76
2022-09-28T02:17:51.150Z,9.75
2022-09-28T02:18:52.525Z,9.78
2022-09-28T02:19:54.013Z,9.79
2022-09-28T02:21:08.868Z,9.83
2022-09-28T02:22:12.973Z,9.89
2022-09-28T02:23:15.206Z,9.91
2022-09-28T02:24:21.574Z,9.89
2022-09-28T02:25:29.861Z,9.88
2022-09-28T02:26:34.976Z,9.91
2022-09-28T02:27:40.978Z,9.90
2022-09-28T02:28:42.789Z,9.95
2022-09-28T02:29:44.167Z,10.01
2022-09-28T02:30:45.950Z,10.06
2022-09-28T02:31:49.016Z,10.04
2022-09-28T02:32:51.364Z,10.01
2022-09-28T02:33:53.670Z,10.04
2022-09-28T02:34:55.215Z,10.03
2022-09-28T02:35:57.626Z,10.03
2022-09-28T02:37:01.004Z,10.03
2022-09-28T02:38:02.370Z,10.05
2022-09-28T02:39:03.798Z,10.04
2022-09-28T02:40:18.663Z,10.08
2022-09-28T02:41:43.221Z,10.08
2022-09-28T02:42:52.885Z,10.10
2022-09-28T02:44:07.705Z,10.20
2022-09-28T02:45:29.647Z,10.18
2022-09-28T02:46:31.011Z,10.20
2022-09-28T02:48:08.157Z,10.17
2022-09-28T02:49:21.283Z,10.17
2022-09-28T02:50:40.679Z,10.15
2022-09-28T02:51:50.080Z,10.15
2022-09-28T02:53:00.451Z,10.14
2022-09-28T02:54:04.811Z,10.20
2022-09-28T02:55:12.197Z,10.22
2022-09-28T02:56:20.609Z,10.22
2022-09-28T02:57:46.342Z,10.26
2022-09-28T02:59:06.365Z,10.30
2022-09-28T03:00:15.189Z,10.26
2022-09-28T03:01:19.559Z,10.31
2022-09-28T03:02:28.032Z,10.29
2022-09-28T03:03:43.633Z,10.33
2022-09-28T03:05:03.119Z,10.30
2022-09-28T03:06:10.733Z,10.27
2022-09-28T03:07:29.774Z,10.27
2022-09-28T03:08:34.595Z,10.25
2022-09-28T03:09:42.857Z,10.26
2022-09-28T03:10:47.219Z,10.26
2022-09-28T03:11:52.735Z,10.23
2022-09-28T03:12:55.357Z,10.24
2022-09-28T03:13:56.964Z,10.27
2022-09-28T03:15:22.600Z,10.26
2022-09-28T03:16:24.132Z,10.29
2022-09-28T03:17:25.902Z,10.27
2022-09-28T03:18:27.339Z,10.25
2022-09-28T03:19:31.678Z,10.20
2022-09-28T03:20:34.771Z,10.23
2022-09-28T03:21:36.755Z,10.25
2022-09-28T03:22:38.097Z,10.22
2022-09-28T03:23:40.028Z,10.21
2022-09-28T03:24:41.366Z,10.22
2022-09-28T03:25:43.459Z,10.22
2022-09-28T03:26:44.798Z,10.23
2022-09-28T03:27:47.254Z,10.22
2022-09-28T03:28:49.873Z,10.24
2022-09-28T03:29:56.806Z,10.26
2022-09-28T03:30:58.117Z,10.22
2022-09-28T03:31:59.667Z,10.21
2022-09-28T03:33:01.036Z,10.24
2022-09-28T03:34:04.954Z,10.25
2022-09-28T03:35:07.312Z,10.20
2022-09-28T03:36:08.652Z,10.10
2022-09-28T03:37:10.634Z,10.07
2022-09-28T03:38:12.047Z,9.96
2022-09-28T03:39:13.402Z,9.93
2022-09-28T03:40:14.906Z,9.91
2022-09-28T03:41:16.413Z,9.88
2022-09-28T03:42:18.142Z,9.89
2022-09-28T03:43:23.729Z,9.91
2022-09-28T03:44:26.557Z,9.88
2022-09-28T03:45:27.929Z,9.87
2022-09-28T03:46:29.343Z,9.86
2022-09-28T03:47:35.418Z,9.82
2022-09-28T03:48:36.788Z,9.81
2022-09-28T03:49:38.089Z,9.84
2022-09-28T03:50:39.427Z,9.85
2022-09-28T03:51:40.857Z,9.84
2022-09-28T03:52:43.312Z,9.82
2022-09-28T03:53:44.620Z,9.83
2022-09-28T03:54:49.264Z,9.82
2022-09-28T03:55:51.389Z,9.80
2022-09-28T03:56:53.096Z,9.77
2022-09-28T03:57:54.957Z,9.76
2022-09-28T03:58:56.289Z,9.73
2022-09-28T03:59:57.630Z,9.72
2022-09-28T04:01:06.385Z,9.72
2022-09-28T04:02:07.929Z,9.74
2022-09-28T04:03:09.330Z,9.74
2022-09-28T04:04:11.765Z,9.73
2022-09-28T04:05:13.166Z,9.70
2022-09-28T04:06:15.039Z,9.70
2022-09-28T04:07:16.403Z,9.69
2022-09-28T04:08:18.584Z,9.69
2022-09-28T04:09:20.472Z,9.69
2022-09-28T04:10:21.882Z,9.71
2022-09-28T04:11:23.329Z,9.70
2022-09-28T04:12:24.645Z,9.71
2022-09-28T04:13:26.236Z,9.68
2022-09-28T04:14:27.588Z,9.68
2022-09-28T04:15:29.837Z,9.73
2022-09-28T04:16:31.309Z,9.73
2022-09-28T04:17:43.234Z,9.74
2022-09-28T04:18:55.518Z,9.77
2022-09-28T04:20:20.006Z,9.76
2022-09-28T04:21:34.525Z,9.70
2022-09-28T04:22:42.536Z,9.72
2022-09-28T04:23:43.861Z,9.69
2022-09-28T04:24:45.738Z,9.73
2022-09-28T04:25:51.541Z,9.70
2022-09-28T04:26:53.693Z,9.68
2022-09-28T04:27:55.060Z,9.70
2022-09-28T04:28:56.437Z,9.70
2022-09-28T04:29:57.752Z,9.72
2022-09-28T04:30:59.098Z,9.72
2022-09-28T04:32:00.593Z,9.68
2022-09-28T04:33:07.713Z,9.68
2022-09-28T04:34:09.210Z,9.68
2022-09-28T04:35:11.861Z,9.65
2022-09-28T04:36:13.225Z,9.67
2022-09-28T04:37:14.577Z,9.65
2022-09-28T04:38:23.509Z,9.66
2022-09-28T04:39:37.162Z,9.63
2022-09-28T04:40:38.622Z,9.62
2022-09-28T04:41:40.489Z,9.62
2022-09-28T04:42:41.861Z,9.61
2022-09-28T04:43:43.214Z,9.62
2022-09-28T04:44:44.561Z,9.62
2022-09-28T04:45:46.808Z,9.63
2022-09-28T04:46:48.358Z,9.61
2022-09-28T04:48:09.913Z,9.63
2022-09-28T04:49:30.111Z,9.61
2022-09-28T04:50:41.468Z,9.67
2022-09-28T04:51:52.709Z,9.63
2022-09-28T04:52:54.069Z,9.60
2022-09-28T04:53:55.432Z,9.63
2022-09-28T04:54:56.811Z,9.64
2022-09-28T04:56:05.046Z,9.64
2022-09-28T04:57:06.509Z,9.63
2022-09-28T04:58:07.858Z,9.61
2022-09-28T04:59:09.211Z,9.58
2022-09-28T05:00:11.955Z,9.61
2022-09-28T05:01:16.404Z,9.59
2022-09-28T05:02:36.328Z,9.60
2022-09-28T05:03:57.677Z,9.60
2022-09-28T05:05:10.952Z,9.60
2022-09-28T05:06:38.188Z,9.61
2022-09-28T05:07:41.100Z,9.63
2022-09-28T05:08:43.351Z,9.59
2022-09-28T05:09:44.847Z,9.60
2022-09-28T05:10:46.658Z,9.60
2022-09-28T05:11:51.050Z,9.62
2022-09-28T05:12:53.812Z,9.59
2022-09-28T05:13:55.165Z,9.60
2022-09-28T05:14:56.473Z,9.57
2022-09-28T05:16:02.984Z,9.58
2022-09-28T05:17:07.072Z,9.56
2022-09-28T05:18:28.671Z,9.54
2022-09-28T05:19:37.319Z,9.55
2022-09-28T05:20:41.807Z,9.56
2022-09-28T05:21:44.603Z,9.54
2022-09-28T05:22:46.178Z,9.55
2022-09-28T05:23:47.615Z,9.51
2022-09-28T05:24:49.124Z,9.53
2022-09-28T05:25:50.554Z,9.53
2022-09-28T05:27:00.155Z,9.53
2022-09-28T05:28:01.552Z,9.50
2022-09-28T05:29:12.212Z,9.52
2022-09-28T05:30:51.573Z,9.48
2022-09-28T05:32:05.021Z,9.51
2022-09-28T05:33:32.890Z,9.48
2022-09-28T05:34:44.342Z,9.47
2022-09-28T05:35:55.105Z,9.47
2022-09-28T05:36:58.262Z,9.48
2022-09-28T05:38:03.970Z,9.47
2022-09-28T05:39:05.478Z,9.45
2022-09-28T05:40:06.974Z,9.50
2022-09-28T05:41:08.514Z,9.48
2022-09-28T05:42:09.903Z,9.47
2022-09-28T05:43:11.327Z,9.47
2022-09-28T05:44:12.765Z,9.47
2022-09-28T05:45:14.417Z,9.44
2022-09-28T05:46:17.815Z,9.44
2022-09-28T05:47:19.219Z,9.46
2022-09-28T05:48:20.557Z,9.44
2022-09-28T05:49:21.975Z,9.44
2022-09-28T05:50:23.491Z,9.45
2022-09-28T05:51:24.904Z,9.46
2022-09-28T05:52:26.757Z,9.46
2022-09-28T05:53:28.678Z,9.43
2022-09-28T05:54:31.829Z,9.46
2022-09-28T05:55:33.401Z,9.48
2022-09-28T05:56:35.013Z,9.50
2022-09-28T05:57:39.072Z,9.48
2022-09-28T05:58:40.961Z,9.47
2022-09-28T05:59:43.445Z,9.45
2022-09-28T06:00:45.118Z,9.45
2022-09-28T06:01:46.876Z,9.45
2022-09-28T06:02:58.833Z,9.45
2022-09-28T06:04:00.492Z,9.45
2022-09-28T06:05:01.858Z,9.46
2022-09-28T06:06:03.414Z,9.43
2022-09-28T06:07:05.837Z,9.43
2022-09-28T06:08:08.425Z,9.44
2022-09-28T06:09:09.992Z,9.45
2022-09-28T06:10:11.346Z,9.43
2022-09-28T06:11:16.840Z,9.49
2022-09-28T06:12:18.237Z,9.47
2022-09-28T06:13:22.713Z,9.50
2022-09-28T06:14:25.612Z,9.51
2022-09-28T06:15:28.885Z,9.51
2022-09-28T06:16:31.354Z,9.50
2022-09-28T06:17:32.737Z,9.48
2022-09-28T06:18:52.873Z,9.50
2022-09-28T06:20:30.811Z,9.53
2022-09-28T06:21:43.019Z,9.53
2022-09-28T06:22:44.417Z,9.53
2022-09-28T06:23:49.184Z,9.55
2022-09-28T06:24:52.033Z,9.57
2022-09-28T06:25:53.421Z,9.55
2022-09-28T06:26:54.721Z,9.57
2022-09-28T06:28:00.828Z,9.55
2022-09-28T06:29:02.926Z,9.56
2022-09-28T06:30:04.385Z,9.59
2022-09-28T06:31:05.783Z,9.61
2022-09-28T06:32:14.774Z,9.61
2022-09-28T06:33:17.925Z,9.64
2022-09-28T06:34:19.367Z,9.64
2022-09-28T06:35:21.421Z,9.65
2022-09-28T06:36:23.328Z,9.64
2022-09-28T06:37:24.746Z,9.67
2022-09-28T06:38:26.189Z,9.69
2022-09-28T06:39:27.624Z,9.72
2022-09-28T06:40:29.555Z,9.69
2022-09-28T06:41:31.046Z,9.72
2022-09-28T06:42:34.791Z,9.73
2022-09-28T06:44:05.081Z,9.78
2022-09-28T06:45:26.097Z,9.76
2022-09-28T06:46:43.292Z,9.77
2022-09-28T06:48:11.057Z,9.77
2022-09-28T06:49:19.194Z,9.77
2022-09-28T06:50:40.688Z,9.80
2022-09-28T06:51:53.759Z,9.79
2022-09-28T06:53:30.603Z,9.81
2022-09-28T06:55:04.570Z,9.85
2022-09-28T06:56:30.617Z,9.88
2022-09-28T06:57:33.981Z,9.88
2022-09-28T06:58:35.351Z,9.93
2022-09-28T06:59:37.270Z,9.94
2022-09-28T07:00:39.244Z,9.95
2022-09-28T07:01:40.656Z,9.99
2022-09-28T07:02:53.092Z,10.04
2022-09-28T07:04:17.433Z,10.08
2022-09-28T07:05:52.523Z,10.12
2022-09-28T07:07:12.238Z,10.19
2022-09-28T07:08:32.103Z,10.25
2022-09-28T07:09:55.544Z,10.22
2022-09-28T07:11:17.633Z,10.32
2022-09-28T07:12:24.328Z,10.36
2022-09-28T07:13:49.954Z,10.43
2022-09-28T07:14:54.172Z,10.44
2022-09-28T07:15:55.941Z,10.48
2022-09-28T07:17:12.727Z,10.50
2022-09-28T07:18:15.920Z,10.53
2022-09-28T07:19:18.005Z,10.54
2022-09-28T07:20:19.858Z,10.55
2022-09-28T07:21:29.588Z,10.57
2022-09-28T07:22:42.302Z,10.55
2022-09-28T07:23:53.373Z,10.63
2022-09-28T07:24:58.191Z,10.68
2022-09-28T07:26:37.818Z,10.69
2022-09-28T07:27:46.822Z,10.66
2022-09-28T07:29:22.438Z,10.68
2022-09-28T07:30:35.320Z,10.75
2022-09-28T07:31:44.885Z,10.76
2022-09-28T07:33:07.413Z,10.79
2022-09-28T07:34:30.453Z,10.85
2022-09-28T07:35:50.328Z,10.88
2022-09-28T07:36:51.633Z,10.91
2022-09-28T07:38:00.219Z,10.93
2022-09-28T07:39:01.993Z,10.94
2022-09-28T07:40:04.619Z,10.91
2022-09-28T07:41:08.649Z,10.96
2022-09-28T07:42:10.658Z,11.01
2022-09-28T07:43:12.112Z,11.07
2022-09-28T07:44:13.605Z,11.08
2022-09-28T07:45:15.059Z,11.07
2022-09-28T07:46:16.485Z,11.06
2022-09-28T07:47:35.208Z,11.05
2022-09-28T07:49:09.749Z,11.05
2022-09-28T07:50:29.049Z,11.04
2022-09-28T07:51:54.194Z,11.03
2022-09-28T07:53:18.786Z,11.06
2022-09-28T07:54:29.860Z,11.04
2022-09-28T07:56:00.452Z,11.06
2022-09-28T07:57:10.576Z,11.08
2022-09-28T07:58:32.306Z,11.08
2022-09-28T07:59:44.460Z,11.12
2022-09-28T08:01:08.877Z,11.14
2022-09-28T08:02:10.890Z,11.10
2022-09-28T08:03:12.333Z,11.12
2022-09-28T08:04:13.691Z,11.12
2022-09-28T08:05:16.759Z,11.17
2022-09-28T08:06:18.083Z,11.14
2022-09-28T08:07:23.687Z,11.19
2022-09-28T08:08:33.334Z,11.24
2022-09-28T08:09:34.703Z,11.24
2022-09-28T08:12:19.387Z,11.33
2022-09-28T08:13:31.933Z,11.32
2022-09-28T08:14:45.220Z,11.36
2022-09-28T08:15:49.409Z,11.47
2022-09-28T08:16:57.077Z,11.46
2022-09-28T08:18:34.701Z,11.41
2022-09-28T08:19:36.137Z,11.43
2022-09-28T08:20:37.490Z,11.40
2022-09-28T08:21:38.824Z,11.48
2022-09-28T08:22:40.120Z,11.50
2022-09-28T08:23:43.376Z,11.46
2022-09-28T08:24:46.126Z,11.48
2022-09-28T08:25:48.086Z,11.42
2022-09-28T08:26:49.557Z,11.41
2022-09-28T08:27:52.237Z,11.45
2022-09-28T08:28:54.129Z,11.49
2022-09-28T08:30:14.237Z,11.51
2022-09-28T08:31:20.914Z,11.51
2022-09-28T08:32:48.509Z,11.53
2022-09-28T08:34:09.151Z,11.55
2022-09-28T08:35:29.387Z,11.60
2022-09-28T08:36:46.365Z,11.53
2022-09-28T08:38:26.106Z,11.49
2022-09-28T08:39:46.245Z,11.53
2022-09-28T08:41:14.325Z,11.55
2022-09-28T08:42:42.905Z,11.55
2022-09-28T08:44:11.325Z,11.50
2022-09-28T08:45:33.115Z,11.58
2022-09-28T08:46:44.059Z,11.65
2022-09-28T08:48:06.141Z,11.74
2022-09-28T08:49:25.469Z,11.70
2022-09-28T08:50:53.672Z,11.79
2022-09-28T08:52:13.645Z,11.84
2022-09-28T08:53:37.731Z,11.77
2022-09-28T08:54:56.623Z,11.85
2022-09-28T08:56:10.502Z,11.94
2022-09-28T08:57:14.601Z,12.04
2022-09-28T08:58:27.627Z,12.10
2022-09-28T08:59:37.119Z,12.13
2022-09-28T09:00:51.385Z,12.22
2022-09-28T09:01:59.392Z,12.26
2022-09-28T09:03:06.407Z,12.35
2022-09-28T09:04:09.405Z,12.38
2022-09-28T09:05:39.891Z,12.39
2022-09-28T09:07:04.106Z,12.46
2022-09-28T09:08:29.258Z,12.46
2022-09-28T09:09:46.022Z,12.47
2022-09-28T09:10:47.376Z,12.54
2022-09-28T09:11:57.074Z,12.58
2022-09-28T09:13:04.402Z,12.68
2022-09-28T09:14:17.712Z,12.79
2022-09-28T09:15:19.138Z,12.87
2022-09-28T09:16:26.473Z,12.94
2022-09-28T09:18:02.093Z,12.82
2022-09-28T09:19:15.811Z,12.68
2022-09-28T09:20:55.748Z,12.66
2022-09-28T09:22:08.635Z,12.79
2022-09-28T09:23:17.307Z,12.78
2022-09-28T09:24:22.030Z,12.73
2022-09-28T09:25:23.386Z,12.71
2022-09-28T09:26:35.000Z,12.71
2022-09-28T09:28:05.642Z,12.60
2022-09-28T09:29:13.116Z,12.54
2022-09-28T09:30:21.677Z,12.43
2022-09-28T09:31:34.279Z,12.44
2022-09-28T09:32:38.721Z,12.53
2022-09-28T09:33:42.854Z,12.55
2022-09-28T09:35:02.639Z,12.63
2022-09-28T09:36:41.368Z,12.64
2022-09-28T09:38:25.758Z,12.57
2022-09-28T09:40:16.761Z,12.72
2022-09-28T09:41:39.529Z,12.69
2022-09-28T09:42:59.231Z,12.61
2022-09-28T09:44:35.610Z,12.62
2022-09-28T09:46:23.766Z,12.63
2022-09-28T09:47:36.660Z,12.70
2022-09-28T09:49:01.635Z,12.83
2022-09-28T09:50:09.014Z,12.86
2022-09-28T09:51:30.845Z,12.89
2022-09-28T09:53:42.114Z,12.79
2022-09-28T09:55:07.937Z,12.77
2022-09-28T09:56:45.019Z,12.92
2022-09-28T09:58:17.026Z,12.99
2022-09-28T09:59:23.226Z,13.06
2022-09-28T10:00:50.251Z,13.02
2022-09-28T10:02:26.354Z,12.97
2022-09-28T10:03:39.465Z,12.93
2022-09-28T10:04:48.917Z,12.94
2022-09-28T10:06:07.819Z,12.84
2022-09-28T10:07:14.247Z,12.88
2022-09-28T10:08:18.442Z,12.94
2022-09-28T10:09:23.441Z,13.00
2022-09-28T10:10:24.717Z,13.02
2022-09-28T10:11:31.237Z,13.04
2022-09-28T10:12:33.493Z,13.08
2022-09-28T10:13:35.702Z,13.16
2022-09-28T10:14:42.526Z,13.26
2022-09-28T10:15:44.289Z,13.32
2022-09-28T10:17:02.211Z,13.34
2022-09-28T10:18:22.730Z,13.33
2022-09-28T10:19:43.266Z,13.35
2022-09-28T10:21:03.185Z,13.36
2022-09-28T10:22:16.718Z,13.25
2022-09-28T10:23:26.626Z,13.27
2022-09-28T10:24:30.491Z,13.22
2022-09-28T10:25:33.610Z,13.26
2022-09-28T10:26:40.330Z,13.23
2022-09-28T10:27:47.212Z,13.24
2022-09-28T10:28:54.113Z,13.23
2022-09-28T10:29:57.628Z,13.28
2022-09-28T10:30:59.125Z,13.35
2022-09-28T10:32:01.126Z,13.35
2022-09-28T10:33:28.649Z,13.39
2022-09-28T10:34:31.142Z,13.48
2022-09-28T10:35:42.576Z,13.52
2022-09-28T10:37:06.400Z,13.54
2022-09-28T10:38:21.823Z,13.48
2022-09-28T10:39:50.800Z,13.53
2022-09-28T10:40:53.944Z,13.46
2022-09-28T10:42:02.804Z,13.37
2022-09-28T10:43:24.829Z,13.36
2022-09-28T10:44:32.613Z,13.50
2022-09-28T10:45:39.006Z,13.52
2022-09-28T10:46:40.604Z,13.47
2022-09-28T10:47:47.368Z,13.59
2022-09-28T10:48:59.281Z,13.58
2022-09-28T10:50:16.454Z,13.60
2022-09-28T10:51:18.768Z,13.59
2022-09-28T10:52:31.297Z,13.49
2022-09-28T10:53:34.029Z,13.42
2022-09-28T10:54:53.946Z,13.44
2022-09-28T10:55:58.822Z,13.52
2022-09-28T10:57:00.434Z,13.55
2022-09-28T10:58:23.982Z,13.55
2022-09-28T10:59:31.033Z,13.58
2022-09-28T11:01:13.308Z,13.57
2022-09-28T11:02:24.417Z,13.58
2022-09-28T11:03:29.597Z,13.65
2022-09-28T11:04:49.513Z,13.67
2022-09-28T11:05:59.366Z,13.66
2022-09-28T11:07:01.656Z,13.69
2022-09-28T11:08:06.404Z,13.58
2022-09-28T11:09:29.859Z,13.45
2022-09-28T11:10:34.978Z,13.40
2022-09-28T11:11:44.190Z,13.49
2022-09-28T11:12:47.438Z,13.48
2022-09-28T11:13:53.553Z,13.57
2022-09-28T11:15:00.961Z,13.58
2022-09-28T11:16:02.417Z,13.61
2022-09-28T11:17:24.358Z,13.63
2022-09-28T11:18:25.752Z,13.64
2022-09-28T11:19:28.398Z,13.64
2022-09-28T11:20:31.877Z,13.63
2022-09-28T11:21:42.582Z,13.55
2022-09-28T11:22:45.045Z,13.64
2022-09-28T11:24:00.493Z,13.69
2022-09-28T11:25:18.864Z,13.76
2022-09-28T11:26:21.692Z,13.88
2022-09-28T11:27:24.757Z,13.91
2022-09-28T11:28:29.462Z,13.88
2022-09-28T11:29:36.948Z,13.94
2022-09-28T11:30:56.480Z,13.91
2022-09-28T11:32:16.033Z,13.91
2022-09-28T11:33:42.240Z,13.88
2022-09-28T11:35:05.492Z,13.85
2022-09-28T11:36:13.288Z,13.87
2022-09-28T11:37:17.491Z,13.92
2022-09-28T11:38:39.426Z,13.99
2022-09-28T11:40:27.763Z,14.06
2022-09-28T11:41:32.110Z,14.08
2022-09-28T11:42:56.097Z,14.13
2022-09-28T11:44:11.271Z,14.16
2022-09-28T11:45:27.358Z,14.24
2022-09-28T11:46:33.778Z,14.17
2022-09-28T11:47:46.580Z,14.11
2022-09-28T11:48:52.872Z,14.16
2022-09-28T11:50:00.999Z,14.11
2022-09-28T11:51:06.086Z,14.10
2022-09-28T11:52:10.924Z,14.01
2022-09-28T11:53:16.330Z,14.00
2022-09-28T11:54:27.277Z,13.94
2022-09-28T11:55:34.803Z,13.90
2022-09-28T11:56:38.909Z,13.86
2022-09-28T11:57:42.509Z,13.89
2022-09-28T11:58:46.892Z,13.90
2022-09-28T11:59:49.414Z,13.91
2022-09-28T12:00:54.356Z,14.05
2022-09-28T12:02:10.108Z,14.07
2022-09-28T12:03:21.308Z,14.05
2022-09-28T12:04:37.355Z,14.03
2022-09-28T12:05:42.787Z,13.94
2022-09-28T12:06:49.462Z,13.90
2022-09-28T12:07:57.532Z,13.88
2022-09-28T12:09:40.522Z,13.92
2022-09-28T12:10:56.664Z,13.91
2022-09-28T12:12:33.364Z,13.98
2022-09-28T12:13:41.760Z,14.07
2022-09-28T12:14:45.447Z,14.15
2022-09-28T12:17:38.856Z,14.22
2022-09-28T12:20:25.261Z,14.22
2022-09-28T12:21:58.860Z,14.20
2022-09-28T12:23:11.163Z,14.27
2022-09-28T12:24:21.368Z,14.21
2022-09-28T12:25:23.115Z,14.30
2022-09-28T12:26:50.849Z,14.30
2022-09-28T12:27:59.850Z,14.23
2022-09-28T12:29:04.301Z,14.25
2022-09-28T12:30:14.458Z,14.30
2022-09-28T12:31:19.812Z,14.32
2022-09-28T12:32:27.096Z,14.38
2022-09-28T12:33:28.412Z,14.32
2022-09-28T12:34:29.813Z,14.33
2022-09-28T12:35:39.829Z,14.32
2022-09-28T12:36:49.501Z,14.33
2022-09-28T12:37:54.472Z,14.35
2022-09-28T12:39:17.687Z,14.37
2022-09-28T12:40:27.642Z,14.33
2022-09-28T12:41:41.340Z,14.36
2022-09-28T12:43:01.295Z,14.33
2022-09-28T12:44:24.924Z,14.44
2022-09-28T12:45:47.892Z,14.41
2022-09-28T12:47:17.170Z,14.49
2022-09-28T12:48:21.246Z,14.56
2022-09-28T12:50:57.346Z,14.55
2022-09-28T12:52:04.420Z,14.63
2022-09-28T12:53:20.757Z,14.71
2022-09-28T12:54:40.953Z,14.78
2022-09-28T12:56:01.295Z,14.78
2022-09-28T12:57:21.531Z,14.82
2022-09-28T12:58:22.831Z,14.91
2022-09-28T12:59:29.625Z,14.93
2022-09-28T13:00:43.290Z,14.98
2022-09-28T13:01:47.634Z,14.99
2022-09-28T13:02:49.073Z,14.74
2022-09-28T13:03:53.500Z,14.67
2022-09-28T13:05:13.242Z,14.69
2022-09-28T13:06:25.575Z,14.73
2022-09-28T13:07:35.807Z,14.71
2022-09-28T13:08:44.199Z,14.70
2022-09-28T13:10:24.149Z,14.75
2022-09-28T13:11:47.869Z,14.74
2022-09-28T13:12:49.182Z,14.72
2022-09-28T13:14:04.721Z,14.74
2022-09-28T13:15:17.030Z,14.76
2022-09-28T13:16:30.518Z,14.75
2022-09-28T13:17:47.253Z,14.74
2022-09-28T13:18:51.857Z,14.67
2022-09-28T13:20:03.736Z,14.66
2022-09-28T13:21:05.043Z,14.72
2022-09-28T13:22:24.553Z,14.70
2022-09-28T13:23:28.706Z,14.72
2022-09-28T13:24:33.628Z,14.72
2022-09-28T13:25:35.975Z,14.77
2022-09-28T13:26:40.142Z,14.84
2022-09-28T13:27:45.978Z,14.84
2022-09-28T13:28:48.097Z,14.83
2022-09-28T13:29:50.729Z,14.80
2022-09-28T13:30:53.309Z,14.79
2022-09-28T13:31:56.394Z,14.81
2022-09-28T13:32:58.967Z,14.86
2022-09-28T13:34:01.562Z,14.89
2022-09-28T13:35:03.031Z,14.82
2022-09-28T13:36:24.343Z,14.76
2022-09-28T13:37:26.029Z,14.72
2022-09-28T13:38:27.307Z,14.76
2022-09-28T13:39:38.542Z,14.73
2022-09-28T13:40:58.607Z,14.69
2022-09-28T13:42:00.014Z,14.68
2022-09-28T13:43:19.417Z,14.70
2022-09-28T13:44:27.367Z,14.63
2022-09-28T13:45:32.545Z,14.65
2022-09-28T13:46:33.915Z,14.53
2022-09-28T13:47:35.295Z,14.54
2022-09-28T13:48:46.772Z,14.51
2022-09-28T13:49:55.597Z,14.55
2022-09-28T13:50:56.912Z,14.57
2022-09-28T13:52:04.108Z,14.52
2022-09-28T13:53:20.747Z,14.48
2022-09-28T13:54:54.563Z,14.51
2022-09-28T13:56:14.639Z,14.36
2022-09-28T13:57:18.694Z,14.37
2022-09-28T13:58:44.042Z,14.34
2022-09-28T14:00:02.900Z,14.35
2022-09-28T14:01:19.094Z,14.43
2022-09-28T14:02:39.389Z,14.46
2022-09-28T14:03:54.670Z,14.44
2022-09-28T14:04:57.621Z,14.42
2022-09-28T14:06:17.687Z,14.46
2022-09-28T14:07:24.713Z,14.48
2022-09-28T14:08:28.026Z,14.45
2022-09-28T14:09:40.228Z,14.48
2022-09-28T14:10:52.080Z,14.48
2022-09-28T14:12:00.393Z,14.48
2022-09-28T14:13:04.107Z,14.46
2022-09-28T14:14:07.881Z,14.44
2022-09-28T14:15:41.475Z,14.35
2022-09-28T14:16:43.543Z,14.27
2022-09-28T14:17:51.712Z,14.29
2022-09-28T14:18:53.014Z,14.22
2022-09-28T14:19:56.344Z,14.28
2022-09-28T14:21:04.297Z,14.26
2022-09-28T14:22:29.467Z,14.21
2022-09-28T14:23:42.765Z,14.29
2022-09-28T14:24:59.350Z,14.30
2022-09-28T14:26:19.084Z,14.26
2022-09-28T14:27:26.649Z,14.23
2022-09-28T14:28:46.726Z,14.29
2022-09-28T14:29:50.329Z,14.37
2022-09-28T14:30:53.471Z,14.32
2022-09-28T14:31:55.690Z,14.37
2022-09-28T14:32:58.199Z,14.25
2022-09-28T14:34:02.784Z,14.17
2022-09-28T14:35:24.406Z,14.17
2022-09-28T14:36:27.346Z,14.14
2022-09-28T14:37:31.199Z,14.11
2022-09-28T14:38:36.241Z,14.07
2022-09-28T14:39:38.074Z,14.03
2022-09-28T14:40:58.207Z,14.04
2022-09-28T14:42:07.513Z,14.04
2022-09-28T14:43:26.165Z,14.00
2022-09-28T14:44:27.469Z,13.95
2022-09-28T14:45:35.687Z,13.97
2022-09-28T14:46:46.869Z,13.93
2022-09-28T14:48:06.710Z,13.93
2022-09-28T14:49:16.983Z,13.88
2022-09-28T14:50:20.962Z,13.89
2022-09-28T14:51:24.789Z,13.85
2022-09-28T14:52:44.298Z,13.82
2022-09-28T14:53:49.749Z,13.79
2022-09-28T14:54:54.260Z,13.80
2022-09-28T14:55:57.632Z,13.72
2022-09-28T14:57:07.662Z,13.71
2022-09-28T14:58:15.716Z,13.67
2022-09-28T14:59:18.221Z,13.68
2022-09-28T15:00:23.864Z,13.73
2022-09-28T15:01:25.679Z,13.75
2022-09-28T15:02:31.674Z,13.73
2022-09-28T15:03:34.025Z,13.71
2022-09-28T15:04:37.319Z,13.71
2022-09-28T15:05:42.477Z,13.75
2022-09-28T15:06:44.972Z,13.74
2022-09-28T15:07:50.616Z,13.72